createdAt,value
2022-08-11T00:01:10.638Z,18.80
2022-08-11T00:03:45.733Z,19.53
2022-08-11T00:06:24.235Z,21.43
2022-08-11T00:08:53.703Z,17.87
2022-08-11T00:11:23.849Z,18.40
2022-08-11T00:13:56.185Z,18.53
2022-08-11T00:16:26.363Z,19.50
2022-08-11T00:18:56.773Z,18.87
2022-08-11T00:22:01.844Z,18.30
2022-08-11T00:24:18.768Z,20.60
2022-08-11T00:26:50.280Z,18.60
2022-08-11T00:29:19.359Z,20.70
2022-08-11T00:31:50.742Z,18.47
2022-08-11T00:34:22.967Z,18.37
2022-08-11T00:36:56.571Z,19.40
2022-08-11T00:39:28.695Z,19.90
2022-08-11T00:42:11.023Z,17.70
2022-08-11T00:44:49.202Z,18.77
2022-08-11T00:47:25.141Z,20.00
2022-08-11T00:50:06.020Z,19.40
2022-08-11T00:52:59.072Z,18.53
2022-08-11T00:56:09.769Z,19.13
2022-08-11T00:59:34.481Z,18.23
2022-08-11T01:02:18.235Z,20.13
2022-08-11T01:05:29.313Z,18.17
2022-08-11T01:08:43.200Z,18.53
2022-08-11T01:12:03.522Z,20.33
2022-08-11T01:15:06.860Z,18.43
2022-08-11T01:18:11.531Z,17.30
2022-08-11T01:21:10.605Z,18.03
2022-08-11T01:24:27.268Z,16.70
2022-08-11T01:27:22.714Z,17.43
2022-08-11T01:30:18.760Z,18.47
2022-08-11T01:33:14.800Z,18.43
2022-08-11T01:36:15.572Z,20.30
2022-08-11T01:39:22.689Z,18.03
2022-08-11T01:42:33.965Z,17.90
2022-08-11T01:45:18.104Z,20.13
2022-08-11T01:47:54.557Z,18.63
2022-08-11T01:50:36.841Z,19.67
2022-08-11T01:53:17.032Z,22.40
2022-08-11T01:55:57.410Z,18.83
2022-08-11T01:58:43.527Z,17.10
2022-08-11T02:01:26.880Z,18.83
2022-08-11T02:04:00.673Z,19.63
2022-08-11T02:06:58.337Z,18.47
2022-08-11T02:10:00.256Z,17.60
2022-08-11T02:12:52.346Z,18.23
2022-08-11T02:15:29.729Z,20.23
2022-08-11T02:18:09.414Z,19.80
2022-08-11T02:21:18.503Z,17.90
2022-08-11T02:24:04.912Z,18.87
2022-08-11T02:26:42.218Z,17.50
2022-08-11T02:29:17.994Z,19.90
2022-08-11T02:32:33.793Z,19.50
2022-08-11T02:35:11.293Z,17.10
2022-08-11T02:37:49.845Z,19.20
2022-08-11T02:40:25.636Z,23.37
2022-08-11T02:43:07.062Z,20.37
2022-08-11T02:45:55.672Z,18.80
2022-08-11T02:48:55.342Z,20.07
2022-08-11T02:51:34.589Z,18.13
2022-08-11T02:54:12.098Z,20.23
2022-08-11T02:56:52.363Z,18.37
2022-08-11T02:59:53.739Z,20.57
2022-08-11T03:02:35.050Z,20.27
2022-08-11T03:05:14.163Z,17.77
2022-08-11T03:07:52.893Z,20.33
2022-08-11T03:10:24.706Z,22.57
2022-08-11T03:13:31.181Z,20.43
2022-08-11T03:16:31.945Z,17.77
2022-08-11T03:19:13.088Z,18.50
2022-08-11T03:22:02.868Z,20.10
2022-08-11T03:24:46.563Z,18.63
2022-08-11T03:27:36.779Z,20.57
2022-08-11T03:30:14.454Z,21.90
2022-08-11T03:33:26.916Z,19.20
2022-08-11T03:36:10.890Z,19.80
2022-08-11T03:38:57.756Z,18.97
2022-08-11T03:42:03.368Z,17.87
2022-08-11T03:44:53.444Z,16.73
2022-08-11T03:47:52.585Z,19.10
2022-08-11T03:51:03.996Z,22.40
2022-08-11T03:53:57.109Z,18.33
2022-08-11T03:57:04.810Z,18.13
2022-08-11T04:00:09.248Z,18.83
2022-08-11T04:03:10.208Z,19.77
2022-08-11T04:06:15.009Z,19.97
2022-08-11T04:09:24.933Z,21.37
2022-08-11T04:12:38.098Z,20.93
2022-08-11T04:15:55.459Z,17.87
2022-08-11T04:18:42.743Z,22.93
2022-08-11T04:21:37.923Z,22.63
2022-08-11T04:24:48.361Z,17.73
2022-08-11T04:27:58.802Z,20.40
2022-08-11T04:30:32.164Z,18.27
2022-08-11T04:33:35.000Z,17.50
2022-08-11T04:36:44.437Z,19.33
2022-08-11T04:39:23.466Z,20.93
2022-08-11T04:42:37.937Z,18.77
2022-08-11T04:45:37.287Z,18.03
2022-08-11T04:48:41.171Z,18.67
2022-08-11T04:51:51.003Z,21.13
2022-08-11T04:54:47.632Z,19.63
2022-08-11T04:57:49.830Z,19.83
2022-08-11T05:00:37.412Z,25.00
2022-08-11T05:03:45.197Z,19.00
2022-08-11T05:06:48.710Z,20.27
2022-08-11T05:09:52.670Z,18.70
2022-08-11T05:12:44.411Z,19.73
2022-08-11T05:15:32.865Z,22.53
2022-08-11T05:18:35.186Z,25.03
2022-08-11T05:21:26.379Z,21.93
2022-08-11T05:24:17.014Z,20.53
2022-08-11T05:27:12.880Z,19.87
2022-08-11T05:30:05.690Z,17.33
2022-08-11T05:33:00.892Z,18.63
2022-08-11T05:36:01.857Z,19.90
2022-08-11T05:38:44.004Z,20.97
2022-08-11T05:41:30.980Z,24.97
2022-08-11T05:44:20.653Z,21.03
2022-08-11T05:47:09.620Z,21.20
2022-08-11T05:49:58.063Z,19.63
2022-08-11T05:52:49.047Z,18.20
2022-08-11T05:56:02.468Z,24.43
2022-08-11T05:58:41.733Z,20.03
2022-08-11T06:01:12.958Z,21.30
2022-08-11T06:04:04.062Z,22.47
2022-08-11T06:06:33.350Z,19.50
2022-08-11T06:09:02.955Z,19.77
2022-08-11T06:11:43.603Z,20.33
2022-08-11T06:14:15.575Z,24.03
2022-08-11T06:16:48.232Z,20.60
2022-08-11T06:19:21.260Z,21.93
2022-08-11T06:21:53.243Z,20.30
2022-08-11T06:24:22.449Z,21.60
2022-08-11T06:29:54.783Z,21.40
2022-08-11T06:32:29.013Z,24.80
2022-08-11T06:35:19.912Z,20.50
2022-08-11T06:38:03.577Z,22.40
2022-08-11T06:40:39.982Z,21.60
2022-08-11T06:43:17.052Z,22.07
2022-08-11T06:45:54.256Z,21.27
2022-08-11T06:48:26.152Z,23.80
2022-08-11T06:51:13.453Z,21.90
2022-08-11T06:54:03.548Z,19.70
2022-08-11T06:57:25.966Z,19.83
2022-08-11T07:00:02.101Z,23.87
2022-08-11T07:02:35.031Z,20.37
2022-08-11T07:05:08.682Z,20.77
2022-08-11T07:08:34.641Z,20.17
2022-08-11T07:11:52.799Z,20.50
2022-08-11T07:14:43.428Z,23.10
2022-08-11T07:17:17.403Z,22.63
2022-08-11T07:20:14.207Z,19.63
2022-08-11T07:23:06.512Z,20.77
2022-08-11T07:26:10.329Z,22.10
2022-08-11T07:28:59.291Z,20.83
2022-08-11T07:31:35.926Z,21.70
2022-08-11T07:34:21.495Z,22.70
2022-08-11T07:36:54.168Z,22.40
2022-08-11T07:39:27.700Z,24.53
2022-08-11T07:42:00.536Z,22.43
2022-08-11T07:44:34.839Z,23.53
2022-08-11T07:47:21.744Z,20.23
2022-08-11T07:50:09.318Z,20.53
2022-08-11T07:52:40.564Z,19.67
2022-08-11T07:55:15.606Z,21.67
2022-08-11T07:58:16.395Z,21.47
2022-08-11T08:01:10.102Z,21.87
2022-08-11T08:03:59.513Z,21.17
2022-08-11T08:06:47.676Z,21.90
2022-08-11T08:09:37.246Z,22.70
2022-08-11T08:12:27.669Z,19.90
2022-08-11T08:15:15.849Z,20.93
2022-08-11T08:18:09.744Z,20.50
2022-08-11T08:20:49.846Z,22.33
2022-08-11T08:23:33.534Z,22.17
2022-08-11T08:26:05.709Z,21.97
2022-08-11T08:28:46.663Z,21.03
2022-08-11T08:31:15.356Z,21.87
2022-08-11T08:33:44.781Z,23.13
2022-08-11T08:36:15.514Z,22.17
2022-08-11T08:38:49.574Z,20.37
2022-08-11T08:41:23.253Z,21.97
2022-08-11T08:44:05.946Z,22.73
2022-08-11T08:46:47.457Z,22.97
2022-08-11T08:49:19.376Z,23.53
2022-08-11T08:51:58.626Z,22.47
2022-08-11T08:54:35.562Z,24.37
2022-08-11T08:57:06.271Z,21.17
2022-08-11T08:59:49.135Z,21.10
2022-08-11T09:02:33.625Z,24.20
2022-08-11T09:05:05.865Z,21.83
2022-08-11T09:07:39.797Z,22.00
2022-08-11T09:10:11.223Z,25.43
2022-08-11T09:12:42.844Z,23.23
2022-08-11T09:15:15.054Z,27.70
2022-08-11T09:17:50.228Z,26.23
2022-08-11T09:20:21.289Z,24.13
2022-08-11T09:26:18.667Z,24.17
2022-08-11T09:28:49.782Z,23.50
2022-08-11T09:31:22.743Z,25.07
2022-08-11T09:33:55.124Z,25.47
2022-08-11T09:36:41.635Z,26.87
2022-08-11T09:39:31.222Z,24.83
2022-08-11T09:42:03.457Z,25.17
2022-08-11T09:44:49.548Z,23.63
2022-08-11T09:47:25.470Z,25.53
2022-08-11T09:50:00.385Z,25.30
2022-08-11T09:52:33.464Z,24.90
2022-08-11T09:55:05.108Z,24.37
2022-08-11T09:57:51.229Z,24.80
2022-08-11T10:00:21.778Z,28.50
2022-08-11T10:02:53.584Z,25.07
2022-08-11T10:05:40.564Z,26.50
2022-08-11T10:08:13.294Z,24.80
2022-08-11T10:10:43.059Z,24.00
2022-08-11T10:14:31.915Z,26.93
2022-08-11T10:16:15.940Z,25.60
2022-08-11T10:18:53.368Z,25.23
2022-08-11T10:21:29.222Z,27.13
2022-08-11T10:24:17.821Z,26.80
2022-08-11T10:26:54.864Z,26.33
2022-08-11T10:29:45.253Z,27.37
2022-08-11T10:32:46.383Z,27.10
2022-08-11T10:35:30.640Z,26.97
2022-08-11T10:38:06.863Z,25.53
2022-08-11T10:40:41.525Z,26.23
2022-08-11T10:43:14.362Z,27.33
2022-08-11T10:46:04.926Z,27.80
2022-08-11T10:48:39.118Z,26.23
2022-08-11T10:51:15.455Z,25.83
2022-08-11T10:54:12.348Z,24.97
2022-08-11T10:56:59.949Z,25.80
2022-08-11T10:59:30.453Z,26.27
2022-08-11T11:02:01.558Z,25.87
2022-08-11T11:04:40.856Z,26.70
2022-08-11T11:07:19.873Z,26.93
2022-08-11T11:09:51.680Z,27.33
2022-08-11T11:12:43.052Z,27.98
2022-08-11T11:15:31.442Z,29.13
2022-08-11T11:18:06.338Z,27.20
2022-08-11T11:20:43.713Z,25.48
2022-08-11T11:23:21.067Z,27.47
2022-08-11T11:26:31.525Z,27.40
2022-08-11T11:29:26.436Z,27.25
2022-08-11T11:32:10.779Z,27.63
2022-08-11T11:35:05.773Z,27.08
2022-08-11T11:37:36.338Z,26.42
2022-08-11T11:40:11.613Z,26.05
2022-08-11T11:42:41.873Z,26.65
2022-08-11T11:45:14.986Z,28.13
2022-08-11T11:47:55.171Z,26.38
2022-08-11T11:50:25.750Z,29.15
2022-08-11T11:53:02.422Z,25.42
2022-08-11T11:55:32.804Z,26.98
2022-08-11T11:58:22.115Z,25.83
2022-08-11T12:01:10.863Z,26.73
2022-08-11T12:03:41.913Z,26.02
2022-08-11T12:06:14.249Z,27.05
2022-08-11T12:08:44.908Z,27.75
2022-08-11T12:11:33.885Z,26.80
2022-08-11T12:14:10.567Z,26.15
2022-08-11T12:16:41.320Z,25.15
2022-08-11T12:19:14.516Z,25.42
2022-08-11T12:22:05.091Z,26.88
2022-08-11T12:24:54.423Z,27.88
2022-08-11T12:27:27.719Z,28.75
2022-08-11T12:29:59.213Z,25.27
2022-08-11T12:32:33.197Z,25.63
2022-08-11T12:35:02.377Z,26.85
2022-08-11T12:37:40.230Z,25.50
2022-08-11T12:41:11.204Z,25.65
2022-08-11T12:43:42.849Z,27.42
2022-08-11T12:46:15.458Z,27.00
2022-08-11T12:49:04.581Z,26.63
2022-08-11T12:52:00.731Z,24.58
2022-08-11T12:54:52.717Z,25.33
2022-08-11T12:57:46.663Z,26.88
2022-08-11T13:00:37.433Z,27.92
2022-08-11T13:03:28.830Z,27.02
2022-08-11T13:06:00.668Z,26.38
2022-08-11T13:08:32.709Z,28.02
2022-08-11T13:11:24.896Z,26.63
2022-08-11T13:14:15.269Z,26.27
2022-08-11T13:17:05.021Z,26.15
2022-08-11T13:19:34.907Z,26.42
2022-08-11T13:22:07.489Z,26.38
2022-08-11T13:24:37.861Z,28.30
2022-08-11T13:27:07.215Z,26.67
2022-08-11T13:29:37.013Z,27.35
2022-08-11T13:32:07.888Z,27.58
2022-08-11T13:34:41.655Z,27.98
2022-08-11T13:37:14.507Z,27.10
2022-08-11T13:39:47.441Z,27.27
2022-08-11T13:42:20.311Z,26.38
2022-08-11T13:44:49.478Z,28.08
2022-08-11T13:47:22.313Z,27.73
2022-08-11T13:49:52.189Z,26.30
2022-08-11T13:52:21.588Z,27.50
2022-08-11T13:54:53.279Z,27.02
2022-08-11T13:58:08.649Z,28.48
2022-08-11T14:00:25.035Z,27.08
2022-08-11T14:02:58.887Z,26.75
2022-08-11T14:05:29.861Z,27.45
2022-08-11T14:08:02.292Z,27.30
2022-08-11T14:10:33.429Z,27.25
2022-08-11T14:13:21.851Z,27.13
2022-08-11T14:15:53.022Z,29.77
2022-08-11T14:18:27.855Z,29.75
2022-08-11T14:21:16.475Z,26.73
2022-08-11T14:23:47.585Z,25.88
2022-08-11T14:26:26.370Z,27.65
2022-08-11T14:28:57.898Z,27.98
2022-08-11T14:31:28.436Z,28.65
2022-08-11T14:34:02.408Z,26.83
2022-08-11T14:36:35.090Z,28.05
2022-08-11T14:39:06.905Z,25.60
2022-08-11T14:42:11.399Z,28.48
2022-08-11T14:45:02.251Z,27.48
2022-08-11T14:47:33.692Z,27.48
2022-08-11T14:50:12.201Z,27.55
2022-08-11T14:52:48.353Z,27.52
2022-08-11T14:55:35.953Z,28.40
2022-08-11T14:58:05.367Z,26.58
2022-08-11T15:00:36.048Z,27.23
2022-08-11T15:03:11.903Z,25.80
2022-08-11T15:05:57.215Z,28.45
2022-08-11T15:08:48.906Z,26.70
2022-08-11T15:11:37.747Z,28.13
2022-08-11T15:14:08.764Z,27.50
2022-08-11T15:16:58.594Z,26.90
2022-08-11T15:19:40.366Z,28.10
2022-08-11T15:22:29.923Z,28.98
2022-08-11T15:25:00.256Z,27.65
2022-08-11T15:27:48.406Z,29.15
2022-08-11T15:30:35.662Z,29.25
2022-08-11T15:33:27.881Z,26.67
2022-08-11T15:36:15.469Z,26.95
2022-08-11T15:38:54.968Z,27.27
2022-08-11T15:41:46.112Z,26.60
2022-08-11T15:45:01.723Z,26.27
2022-08-11T15:47:37.762Z,28.65
2022-08-11T15:50:10.894Z,26.25
2022-08-11T15:52:51.023Z,28.10
2022-08-11T15:55:23.575Z,28.85
2022-08-11T15:58:11.076Z,25.55
2022-08-11T16:01:04.337Z,28.15
2022-08-11T16:04:15.375Z,26.05
2022-08-11T16:06:50.805Z,29.38
2022-08-11T16:09:25.881Z,25.77
2022-08-11T16:12:03.656Z,25.95
2022-08-11T16:14:54.956Z,27.17
2022-08-11T16:17:26.861Z,26.35
2022-08-11T16:19:57.941Z,27.02
2022-08-11T16:22:35.688Z,26.00
2022-08-11T16:26:30.662Z,25.55
2022-08-11T16:28:03.961Z,26.27
2022-08-11T16:30:33.449Z,26.15
2022-08-11T16:33:48.410Z,24.75
2022-08-11T16:36:12.465Z,27.52
2022-08-11T16:38:42.416Z,27.02
2022-08-11T16:41:14.871Z,28.98
2022-08-11T16:44:04.670Z,27.73
2022-08-11T16:46:51.754Z,27.23
2022-08-11T16:49:30.408Z,27.92
2022-08-11T16:52:05.425Z,30.42
2022-08-11T16:54:36.396Z,24.88
2022-08-11T16:57:27.011Z,24.25
2022-08-11T17:00:02.657Z,26.38
2022-08-11T17:02:53.577Z,26.45
2022-08-11T17:05:54.658Z,27.63
2022-08-11T17:08:54.260Z,27.15
2022-08-11T17:11:47.634Z,25.48
2022-08-11T17:14:35.537Z,26.10
2022-08-11T17:17:10.473Z,24.52
2022-08-11T17:20:41.922Z,26.88
2022-08-11T17:22:50.046Z,27.02
2022-08-11T17:25:20.492Z,27.65
2022-08-11T17:27:49.763Z,25.70
2022-08-11T17:30:18.541Z,28.08
2022-08-11T17:33:09.136Z,27.10
2022-08-11T17:35:41.641Z,27.65
2022-08-11T17:38:13.775Z,26.88
2022-08-11T17:41:05.022Z,29.58
2022-08-11T17:43:52.181Z,26.80
2022-08-11T17:46:38.760Z,25.92
2022-08-11T17:49:11.313Z,26.35
2022-08-11T17:51:59.282Z,27.17
2022-08-11T17:54:46.045Z,26.88
2022-08-11T17:57:33.716Z,25.25
2022-08-11T18:00:03.731Z,26.17
2022-08-11T18:02:52.761Z,26.92
2022-08-11T18:05:29.071Z,27.33
2022-08-11T18:08:17.928Z,26.63
2022-08-11T18:11:04.892Z,26.15
2022-08-11T18:13:53.909Z,26.70
2022-08-11T18:16:40.529Z,25.00
2022-08-11T18:19:27.610Z,25.83
2022-08-11T18:22:24.350Z,26.27
2022-08-11T18:25:14.176Z,28.03
2022-08-11T18:28:04.796Z,27.40
2022-08-11T18:31:03.810Z,26.23
2022-08-11T18:34:07.007Z,25.60
2022-08-11T18:36:56.924Z,25.20
2022-08-11T18:39:56.015Z,26.60
2022-08-11T18:42:45.970Z,26.03
2022-08-11T18:45:46.116Z,27.07
2022-08-11T18:48:35.937Z,27.47
2022-08-11T18:51:31.586Z,25.60
2022-08-11T18:54:28.166Z,25.27
2022-08-11T18:57:19.934Z,24.90
2022-08-11T19:00:08.525Z,27.20
2022-08-11T19:02:57.540Z,25.13
2022-08-11T19:06:32.205Z,25.83
2022-08-11T19:08:55.958Z,25.13
2022-08-11T19:11:44.881Z,25.40
2022-08-11T19:14:33.603Z,24.47
2022-08-11T19:17:43.612Z,24.37
2022-08-11T19:20:31.751Z,26.77
2022-08-11T19:23:20.949Z,24.90
2022-08-11T19:26:08.171Z,25.60
2022-08-11T19:28:57.206Z,25.50
2022-08-11T19:31:45.461Z,24.80
2022-08-11T19:34:34.138Z,25.00
2022-08-11T19:37:24.303Z,25.17
2022-08-11T19:40:11.926Z,24.43
2022-08-11T19:42:59.869Z,25.57
2022-08-11T19:45:52.638Z,24.30
2022-08-11T19:48:42.804Z,24.87
2022-08-11T19:51:30.240Z,25.53
2022-08-11T19:54:18.149Z,23.43
2022-08-11T19:57:05.633Z,25.87
2022-08-11T19:59:53.145Z,24.33
2022-08-11T20:02:39.813Z,23.80
2022-08-11T20:05:28.315Z,23.27
2022-08-11T20:08:18.646Z,23.60
2022-08-11T20:11:06.146Z,23.77
2022-08-11T20:13:54.268Z,23.63
2022-08-11T20:16:42.259Z,23.70
2022-08-11T20:19:55.498Z,23.77
2022-08-11T20:22:37.307Z,23.83
2022-08-11T20:25:24.846Z,25.40
2022-08-11T20:28:12.281Z,25.53
2022-08-11T20:30:59.203Z,24.80
2022-08-11T20:33:45.392Z,22.63
2022-08-11T20:36:32.757Z,23.60
2022-08-11T20:39:20.853Z,21.67
2022-08-11T20:42:08.408Z,24.77
2022-08-11T20:44:57.812Z,22.20
2022-08-11T20:47:59.206Z,22.83
2022-08-11T20:50:47.868Z,22.70
2022-08-11T20:53:39.088Z,23.50
2022-08-11T20:56:30.119Z,22.43
2022-08-11T20:59:18.129Z,22.63
2022-08-11T21:02:09.831Z,21.87
2022-08-11T21:04:57.804Z,22.20
2022-08-11T21:07:55.424Z,22.20
2022-08-11T21:10:51.433Z,24.10
2022-08-11T21:13:43.726Z,22.30
2022-08-11T21:16:35.759Z,22.60
2022-08-11T21:20:01.201Z,22.07
2022-08-11T21:22:38.314Z,23.40
2022-08-11T21:25:29.252Z,21.43
2022-08-11T21:28:20.876Z,21.47
2022-08-11T21:31:10.250Z,23.63
2022-08-11T21:33:58.891Z,22.20
2022-08-11T21:36:46.424Z,20.87
2022-08-11T21:39:37.917Z,21.33
2022-08-11T21:42:25.437Z,23.67
2022-08-11T21:45:14.388Z,23.03
2022-08-11T21:48:03.635Z,22.93
2022-08-11T21:50:49.583Z,22.53
2022-08-11T21:53:38.021Z,22.07
2022-08-11T21:56:27.647Z,21.57
2022-08-11T21:59:16.307Z,23.50
2022-08-11T22:02:03.238Z,23.60
2022-08-11T22:04:52.048Z,23.10
2022-08-11T22:07:40.979Z,21.60
2022-08-11T22:10:41.933Z,22.87
2022-08-11T22:13:30.374Z,22.63
2022-08-11T22:16:17.430Z,21.53
2022-08-11T22:19:04.890Z,21.53
2022-08-11T22:22:03.492Z,20.87
2022-08-11T22:24:52.913Z,21.23
2022-08-11T22:27:40.152Z,21.70
2022-08-11T22:30:28.229Z,22.43
2022-08-11T22:33:16.679Z,20.23
2022-08-11T22:36:04.252Z,22.07
2022-08-11T22:38:52.636Z,21.67
2022-08-11T22:41:39.851Z,22.33
2022-08-11T22:44:26.188Z,21.00
2022-08-11T22:47:14.163Z,20.93
2022-08-11T22:50:09.495Z,22.20
2022-08-11T22:52:56.246Z,22.00
2022-08-11T22:55:44.732Z,22.77
2022-08-11T22:58:32.579Z,21.73
2022-08-11T23:01:19.398Z,21.13
2022-08-11T23:04:06.095Z,23.27
2022-08-11T23:06:53.733Z,21.97
2022-08-11T23:09:41.932Z,20.20
2022-08-11T23:12:29.890Z,20.97
2022-08-11T23:15:18.427Z,19.90
2022-08-11T23:18:05.025Z,23.97
2022-08-11T23:20:54.592Z,21.10
2022-08-11T23:23:43.318Z,22.33
2022-08-11T23:26:30.141Z,21.47
2022-08-11T23:29:21.855Z,19.83
2022-08-11T23:32:11.252Z,22.00
2022-08-11T23:35:37.277Z,19.37
2022-08-11T23:38:05.918Z,21.47
2022-08-11T23:40:51.989Z,20.57
2022-08-11T23:43:39.122Z,20.23
2022-08-11T23:46:29.450Z,22.13
2022-08-11T23:49:19.844Z,21.17
2022-08-11T23:52:07.293Z,23.23
2022-08-11T23:54:54.541Z,19.40
2022-08-11T23:57:47.823Z,22.30
